sensor_id;sensor_type;location;lat;lon;timestamp;temperature;humidity
15983;DHT22;14442;50.196;8.096;2023-12-14T00:01:44;23.00;44.70
15983;DHT22;14442;50.196;8.096;2023-12-14T00:04:11;23.00;44.60
15983;DHT22;14442;50.196;8.096;2023-12-14T00:06:39;23.00;44.70
15983;DHT22;14442;50.196;8.096;2023-12-14T00:09:06;23.00;44.70
15983;DHT22;14442;50.196;8.096;2023-12-14T00:11:37;22.90;44.50
15983;DHT22;14442;50.196;8.096;2023-12-14T00:14:04;23.00;44.60
15983;DHT22;14442;50.196;8.096;2023-12-14T00:16:31;23.00;44.50
15983;DHT22;14442;50.196;8.096;2023-12-14T00:18:58;23.00;44.50
15983;DHT22;14442;50.196;8.096;2023-12-14T00:21:25;23.00;44.50
15983;DHT22;14442;50.196;8.096;2023-12-14T00:23:53;23.00;44.20
15983;DHT22;14442;50.196;8.096;2023-12-14T00:26:19;23.00;44.20
15983;DHT22;14442;50.196;8.096;2023-12-14T00:28:46;23.00;44.10
15983;DHT22;14442;50.196;8.096;2023-12-14T00:31:13;23.00;44.20
15983;DHT22;14442;50.196;8.096;2023-12-14T00:33:39;23.00;44.10
15983;DHT22;14442;50.196;8.096;2023-12-14T00:36:07;23.00;44.00
15983;DHT22;14442;50.196;8.096;2023-12-14T00:38:33;23.00;44.10
15983;DHT22;14442;50.196;8.096;2023-12-14T00:41:02;23.00;44.00
15983;DHT22;14442;50.196;8.096;2023-12-14T00:43:28;23.00;44.00
15983;DHT22;14442;50.196;8.096;2023-12-14T00:45:55;23.00;44.00
15983;DHT22;14442;50.196;8.096;2023-12-14T00:48:22;23.00;43.90
15983;DHT22;14442;50.196;8.096;2023-12-14T00:50:48;23.00;43.90
15983;DHT22;14442;50.196;8.096;2023-12-14T00:53:15;23.00;43.90
15983;DHT22;14442;50.196;8.096;2023-12-14T00:55:42;23.00;43.90
15983;DHT22;14442;50.196;8.096;2023-12-14T00:58:10;23.00;43.80
15983;DHT22;14442;50.196;8.096;2023-12-14T01:00:38;23.00;43.70
15983;DHT22;14442;50.196;8.096;2023-12-14T01:03:05;23.00;43.80
15983;DHT22;14442;50.196;8.096;2023-12-14T01:05:31;23.00;43.80
15983;DHT22;14442;50.196;8.096;2023-12-14T01:07:58;23.00;43.80
15983;DHT22;14442;50.196;8.096;2023-12-14T01:10:25;23.00;43.80
15983;DHT22;14442;50.196;8.096;2023-12-14T01:12:51;23.00;43.80
15983;DHT22;14442;50.196;8.096;2023-12-14T01:15:19;23.00;43.80
15983;DHT22;14442;50.196;8.096;2023-12-14T01:17:46;23.00;43.70
15983;DHT22;14442;50.196;8.096;2023-12-14T01:20:13;23.00;43.70
15983;DHT22;14442;50.196;8.096;2023-12-14T01:22:40;23.00;43.80
15983;DHT22;14442;50.196;8.096;2023-12-14T01:25:07;23.00;43.80
15983;DHT22;14442;50.196;8.096;2023-12-14T01:27:34;23.00;43.70
15983;DHT22;14442;50.196;8.096;2023-12-14T01:30:00;23.00;43.80
15983;DHT22;14442;50.196;8.096;2023-12-14T01:32:28;23.00;43.80
15983;DHT22;14442;50.196;8.096;2023-12-14T01:34:55;23.00;43.80
15983;DHT22;14442;50.196;8.096;2023-12-14T01:37:22;23.00;43.80
15983;DHT22;14442;50.196;8.096;2023-12-14T01:39:48;23.00;43.90
15983;DHT22;14442;50.196;8.096;2023-12-14T01:42:15;23.00;43.80
15983;DHT22;14442;50.196;8.096;2023-12-14T01:44:42;23.00;43.90
15983;DHT22;14442;50.196;8.096;2023-12-14T01:47:08;23.00;44.00
15983;DHT22;14442;50.196;8.096;2023-12-14T01:49:37;23.00;44.00
15983;DHT22;14442;50.196;8.096;2023-12-14T01:52:04;22.90;43.90
15983;DHT22;14442;50.196;8.096;2023-12-14T01:54:31;22.90;44.00
15983;DHT22;14442;50.196;8.096;2023-12-14T01:56:57;22.90;43.90
15983;DHT22;14442;50.196;8.096;2023-12-14T01:59:24;23.00;44.00
15983;DHT22;14442;50.196;8.096;2023-12-14T02:01:53;22.90;43.90
15983;DHT22;14442;50.196;8.096;2023-12-14T02:04:22;22.90;44.00
15983;DHT22;14442;50.196;8.096;2023-12-14T02:06:50;22.90;44.00
15983;DHT22;14442;50.196;8.096;2023-12-14T02:09:17;22.90;44.00
15983;DHT22;14442;50.196;8.096;2023-12-14T02:11:44;22.90;44.00
15983;DHT22;14442;50.196;8.096;2023-12-14T02:14:11;22.90;44.00
15983;DHT22;14442;50.196;8.096;2023-12-14T02:16:38;22.90;44.00
15983;DHT22;14442;50.196;8.096;2023-12-14T02:19:05;22.90;44.00
15983;DHT22;14442;50.196;8.096;2023-12-14T02:21:31;22.90;44.00
15983;DHT22;14442;50.196;8.096;2023-12-14T02:24:00;22.90;43.90
15983;DHT22;14442;50.196;8.096;2023-12-14T02:26:26;22.90;44.00
15983;DHT22;14442;50.196;8.096;2023-12-14T02:28:53;22.90;44.00
15983;DHT22;14442;50.196;8.096;2023-12-14T02:31:20;22.90;44.10
15983;DHT22;14442;50.196;8.096;2023-12-14T02:33:46;22.80;44.00
15983;DHT22;14442;50.196;8.096;2023-12-14T02:36:13;22.80;44.00
15983;DHT22;14442;50.196;8.096;2023-12-14T02:38:40;22.90;44.10
15983;DHT22;14442;50.196;8.096;2023-12-14T02:41:08;22.80;44.00
15983;DHT22;14442;50.196;8.096;2023-12-14T02:43:34;22.80;44.00
15983;DHT22;14442;50.196;8.096;2023-12-14T02:46:03;22.80;44.00
15983;DHT22;14442;50.196;8.096;2023-12-14T02:48:30;22.80;44.00
15983;DHT22;14442;50.196;8.096;2023-12-14T02:50:57;22.80;44.00
15983;DHT22;14442;50.196;8.096;2023-12-14T02:53:25;22.80;44.00
15983;DHT22;14442;50.196;8.096;2023-12-14T02:55:52;22.70;44.00
15983;DHT22;14442;50.196;8.096;2023-12-14T02:58:20;22.70;44.00
15983;DHT22;14442;50.196;8.096;2023-12-14T03:00:46;22.70;43.90
15983;DHT22;14442;50.196;8.096;2023-12-14T03:03:13;22.70;44.10
15983;DHT22;14442;50.196;8.096;2023-12-14T03:05:40;22.70;44.10
15983;DHT22;14442;50.196;8.096;2023-12-14T03:08:06;22.70;44.20
15983;DHT22;14442;50.196;8.096;2023-12-14T03:10:33;22.70;44.20
15983;DHT22;14442;50.196;8.096;2023-12-14T03:13:00;22.70;44.20
15983;DHT22;14442;50.196;8.096;2023-12-14T03:15:28;22.70;44.30
15983;DHT22;14442;50.196;8.096;2023-12-14T03:17:55;22.70;44.30
15983;DHT22;14442;50.196;8.096;2023-12-14T03:20:21;22.70;44.20
15983;DHT22;14442;50.196;8.096;2023-12-14T03:22:48;22.60;44.20
15983;DHT22;14442;50.196;8.096;2023-12-14T03:25:15;22.70;44.30
15983;DHT22;14442;50.196;8.096;2023-12-14T03:27:41;22.60;44.20
15983;DHT22;14442;50.196;8.096;2023-12-14T03:30:09;22.60;44.20
15983;DHT22;14442;50.196;8.096;2023-12-14T03:32:37;22.60;44.30
15983;DHT22;14442;50.196;8.096;2023-12-14T03:35:04;22.60;44.20
15983;DHT22;14442;50.196;8.096;2023-12-14T03:37:33;22.60;44.30
15983;DHT22;14442;50.196;8.096;2023-12-14T03:40:00;22.60;44.10
15983;DHT22;14442;50.196;8.096;2023-12-14T03:42:27;22.60;44.20
15983;DHT22;14442;50.196;8.096;2023-12-14T03:44:54;22.60;44.20
15983;DHT22;14442;50.196;8.096;2023-12-14T03:47:21;22.60;44.20
15983;DHT22;14442;50.196;8.096;2023-12-14T03:49:49;22.60;44.30
15983;DHT22;14442;50.196;8.096;2023-12-14T03:52:15;22.60;44.30
15983;DHT22;14442;50.196;8.096;2023-12-14T03:54:42;22.60;44.20
15983;DHT22;14442;50.196;8.096;2023-12-14T03:57:09;22.60;44.20
15983;DHT22;14442;50.196;8.096;2023-12-14T03:59:39;22.60;44.20
15983;DHT22;14442;50.196;8.096;2023-12-14T04:02:06;22.60;44.10
15983;DHT22;14442;50.196;8.096;2023-12-14T04:04:32;22.60;44.10
15983;DHT22;14442;50.196;8.096;2023-12-14T04:07:00;22.50;44.00
15983;DHT22;14442;50.196;8.096;2023-12-14T04:09:27;22.50;43.90
15983;DHT22;14442;50.196;8.096;2023-12-14T04:11:54;22.50;43.90
15983;DHT22;14442;50.196;8.096;2023-12-14T04:14:20;22.50;43.90
15983;DHT22;14442;50.196;8.096;2023-12-14T04:16:47;22.50;43.90
15983;DHT22;14442;50.196;8.096;2023-12-14T04:19:14;22.50;44.00
15983;DHT22;14442;50.196;8.096;2023-12-14T04:21:40;22.50;44.10
15983;DHT22;14442;50.196;8.096;2023-12-14T04:24:08;22.50;44.00
15983;DHT22;14442;50.196;8.096;2023-12-14T04:26:38;22.50;44.10
15983;DHT22;14442;50.196;8.096;2023-12-14T04:29:05;22.50;44.10
15983;DHT22;14442;50.196;8.096;2023-12-14T04:31:33;22.50;44.10
15983;DHT22;14442;50.196;8.096;2023-12-14T04:34:00;22.40;44.00
15983;DHT22;14442;50.196;8.096;2023-12-14T04:36:27;22.50;44.10
15983;DHT22;14442;50.196;8.096;2023-12-14T04:38:53;22.40;44.10
15983;DHT22;14442;50.196;8.096;2023-12-14T04:41:21;22.40;44.10
15983;DHT22;14442;50.196;8.096;2023-12-14T04:43:48;22.40;44.10
15983;DHT22;14442;50.196;8.096;2023-12-14T04:46:15;22.40;44.20
15983;DHT22;14442;50.196;8.096;2023-12-14T04:48:42;22.40;44.10
15983;DHT22;14442;50.196;8.096;2023-12-14T04:51:11;22.40;44.10
15983;DHT22;14442;50.196;8.096;2023-12-14T04:53:38;22.40;44.10
15983;DHT22;14442;50.196;8.096;2023-12-14T04:56:09;22.40;44.10
15983;DHT22;14442;50.196;8.096;2023-12-14T04:58:37;22.40;44.10
15983;DHT22;14442;50.196;8.096;2023-12-14T05:01:05;22.30;44.00
15983;DHT22;14442;50.196;8.096;2023-12-14T05:03:31;22.40;44.10
15983;DHT22;14442;50.196;8.096;2023-12-14T05:05:58;22.40;44.10
15983;DHT22;14442;50.196;8.096;2023-12-14T05:08:25;22.30;44.00
15983;DHT22;14442;50.196;8.096;2023-12-14T05:10:51;22.30;44.10
15983;DHT22;14442;50.196;8.096;2023-12-14T05:13:18;22.30;44.10
15983;DHT22;14442;50.196;8.096;2023-12-14T05:15:46;22.30;44.10
15983;DHT22;14442;50.196;8.096;2023-12-14T05:18:13;22.30;44.10
15983;DHT22;14442;50.196;8.096;2023-12-14T05:20:40;22.30;44.00
15983;DHT22;14442;50.196;8.096;2023-12-14T05:23:06;22.30;44.10
15983;DHT22;14442;50.196;8.096;2023-12-14T05:25:33;22.30;44.00
15983;DHT22;14442;50.196;8.096;2023-12-14T05:28:00;22.30;44.00
15983;DHT22;14442;50.196;8.096;2023-12-14T05:30:26;22.20;44.00
15983;DHT22;14442;50.196;8.096;2023-12-14T05:32:54;22.20;44.00
15983;DHT22;14442;50.196;8.096;2023-12-14T05:35:21;22.20;44.00
15983;DHT22;14442;50.196;8.096;2023-12-14T05:37:48;22.20;44.00
15983;DHT22;14442;50.196;8.096;2023-12-14T05:40:14;22.20;44.00
15983;DHT22;14442;50.196;8.096;2023-12-14T05:42:41;22.20;44.00
15983;DHT22;14442;50.196;8.096;2023-12-14T05:45:09;22.20;44.10
15983;DHT22;14442;50.196;8.096;2023-12-14T05:47:35;22.20;44.00
15983;DHT22;14442;50.196;8.096;2023-12-14T05:50:05;22.10;43.90
15983;DHT22;14442;50.196;8.096;2023-12-14T05:52:34;22.10;44.00
15983;DHT22;14442;50.196;8.096;2023-12-14T05:55:01;22.10;44.00
15983;DHT22;14442;50.196;8.096;2023-12-14T05:57:28;22.10;44.00
15983;DHT22;14442;50.196;8.096;2023-12-14T05:59:55;22.10;44.10
15983;DHT22;14442;50.196;8.096;2023-12-14T06:02:22;22.10;44.20
15983;DHT22;14442;50.196;8.096;2023-12-14T06:04:49;22.10;44.30
15983;DHT22;14442;50.196;8.096;2023-12-14T06:07:17;22.10;44.10
15983;DHT22;14442;50.196;8.096;2023-12-14T06:09:44;22.20;45.00
15983;DHT22;14442;50.196;8.096;2023-12-14T06:12:11;22.20;45.20
15983;DHT22;14442;50.196;8.096;2023-12-14T06:14:38;22.20;45.00
15983;DHT22;14442;50.196;8.096;2023-12-14T06:17:05;22.20;45.00
15983;DHT22;14442;50.196;8.096;2023-12-14T06:19:32;22.20;45.10
15983;DHT22;14442;50.196;8.096;2023-12-14T06:21:58;22.10;45.00
15983;DHT22;14442;50.196;8.096;2023-12-14T06:24:27;22.10;45.00
15983;DHT22;14442;50.196;8.096;2023-12-14T06:26:53;22.10;44.90
15983;DHT22;14442;50.196;8.096;2023-12-14T06:29:20;22.10;45.00
15983;DHT22;14442;50.196;8.096;2023-12-14T06:31:47;22.20;45.10
15983;DHT22;14442;50.196;8.096;2023-12-14T06:34:13;22.10;44.90
15983;DHT22;14442;50.196;8.096;2023-12-14T06:36:42;22.10;44.80
15983;DHT22;14442;50.196;8.096;2023-12-14T06:39:09;22.10;44.90
15983;DHT22;14442;50.196;8.096;2023-12-14T06:41:37;22.20;44.80
15983;DHT22;14442;50.196;8.096;2023-12-14T06:44:04;22.10;44.80
15983;DHT22;14442;50.196;8.096;2023-12-14T06:46:31;22.10;44.70
15983;DHT22;14442;50.196;8.096;2023-12-14T06:48:58;22.10;44.80
15983;DHT22;14442;50.196;8.096;2023-12-14T06:51:23;22.10;45.00
15983;DHT22;14442;50.196;8.096;2023-12-14T06:53:50;22.10;44.90
15983;DHT22;14442;50.196;8.096;2023-12-14T06:56:17;22.00;44.70
15983;DHT22;14442;50.196;8.096;2023-12-14T06:58:46;22.00;44.90
15983;DHT22;14442;50.196;8.096;2023-12-14T07:01:15;22.00;44.80
15983;DHT22;14442;50.196;8.096;2023-12-14T07:03:44;22.00;44.80
15983;DHT22;14442;50.196;8.096;2023-12-14T07:06:12;22.00;44.70
15983;DHT22;14442;50.196;8.096;2023-12-14T07:08:39;22.00;44.70
15983;DHT22;14442;50.196;8.096;2023-12-14T07:11:07;22.00;44.70
15983;DHT22;14442;50.196;8.096;2023-12-14T07:13:33;22.00;44.60
15983;DHT22;14442;50.196;8.096;2023-12-14T07:16:03;22.00;44.70
15983;DHT22;14442;50.196;8.096;2023-12-14T07:18:30;22.00;44.70
15983;DHT22;14442;50.196;8.096;2023-12-14T07:20:57;22.00;44.80
15983;DHT22;14442;50.196;8.096;2023-12-14T07:23:23;22.00;44.80
15983;DHT22;14442;50.196;8.096;2023-12-14T07:25:50;22.00;44.80
15983;DHT22;14442;50.196;8.096;2023-12-14T07:28:17;22.00;44.70
15983;DHT22;14442;50.196;8.096;2023-12-14T07:30:45;22.00;44.80
15983;DHT22;14442;50.196;8.096;2023-12-14T07:33:13;22.00;44.70
15983;DHT22;14442;50.196;8.096;2023-12-14T07:35:40;22.00;44.60
15983;DHT22;14442;50.196;8.096;2023-12-14T07:38:08;22.00;44.60
15983;DHT22;14442;50.196;8.096;2023-12-14T07:40:35;22.00;44.70
15983;DHT22;14442;50.196;8.096;2023-12-14T07:43:01;22.00;44.70
15983;DHT22;14442;50.196;8.096;2023-12-14T07:45:28;22.00;44.50
15983;DHT22;14442;50.196;8.096;2023-12-14T07:47:55;22.10;44.30
15983;DHT22;14442;50.196;8.096;2023-12-14T07:50:23;22.10;44.40
15983;DHT22;14442;50.196;8.096;2023-12-14T07:52:50;22.10;44.50
15983;DHT22;14442;50.196;8.096;2023-12-14T07:55:16;22.10;44.50
15983;DHT22;14442;50.196;8.096;2023-12-14T07:57:44;22.10;44.70
15983;DHT22;14442;50.196;8.096;2023-12-14T08:00:11;22.20;44.80
15983;DHT22;14442;50.196;8.096;2023-12-14T08:02:38;22.20;44.80
15983;DHT22;14442;50.196;8.096;2023-12-14T08:05:06;22.20;44.80
15983;DHT22;14442;50.196;8.096;2023-12-14T08:07:34;22.10;44.90
15983;DHT22;14442;50.196;8.096;2023-12-14T08:10:00;22.20;45.10
15983;DHT22;14442;50.196;8.096;2023-12-14T08:12:27;22.20;44.90
15983;DHT22;14442;50.196;8.096;2023-12-14T08:14:54;22.30;44.90
15983;DHT22;14442;50.196;8.096;2023-12-14T08:17:21;22.30;44.90
15983;DHT22;14442;50.196;8.096;2023-12-14T08:19:47;22.30;44.80
15983;DHT22;14442;50.196;8.096;2023-12-14T08:22:14;22.40;45.00
15983;DHT22;14442;50.196;8.096;2023-12-14T08:24:42;22.40;44.80
15983;DHT22;14442;50.196;8.096;2023-12-14T08:27:08;22.50;45.00
15983;DHT22;14442;50.196;8.096;2023-12-14T08:29:35;22.50;44.80
15983;DHT22;14442;50.196;8.096;2023-12-14T08:32:01;22.60;44.80
15983;DHT22;14442;50.196;8.096;2023-12-14T08:34:28;22.60;44.60
15983;DHT22;14442;50.196;8.096;2023-12-14T08:36:55;22.60;44.60
15983;DHT22;14442;50.196;8.096;2023-12-14T08:39:22;22.60;44.60
15983;DHT22;14442;50.196;8.096;2023-12-14T08:41:50;22.60;44.40
15983;DHT22;14442;50.196;8.096;2023-12-14T08:44:16;22.60;44.60
15983;DHT22;14442;50.196;8.096;2023-12-14T08:46:45;22.50;44.40
15983;DHT22;14442;50.196;8.096;2023-12-14T08:49:13;22.50;44.50
15983;DHT22;14442;50.196;8.096;2023-12-14T08:51:41;22.50;45.00
15983;DHT22;14442;50.196;8.096;2023-12-14T08:54:08;22.50;44.40
15983;DHT22;14442;50.196;8.096;2023-12-14T08:56:35;22.50;44.30
15983;DHT22;14442;50.196;8.096;2023-12-14T08:59:03;22.50;44.30
15983;DHT22;14442;50.196;8.096;2023-12-14T09:01:30;22.60;44.10
15983;DHT22;14442;50.196;8.096;2023-12-14T09:03:57;22.50;44.00
15983;DHT22;14442;50.196;8.096;2023-12-14T09:06:23;22.50;43.90
15983;DHT22;14442;50.196;8.096;2023-12-14T09:08:50;22.50;43.80
15983;DHT22;14442;50.196;8.096;2023-12-14T09:11:17;22.60;43.60
15983;DHT22;14442;50.196;8.096;2023-12-14T09:13:44;22.70;43.60
15983;DHT22;14442;50.196;8.096;2023-12-14T09:16:12;22.80;43.60
15983;DHT22;14442;50.196;8.096;2023-12-14T09:18:40;22.80;43.70
15983;DHT22;14442;50.196;8.096;2023-12-14T09:21:07;22.80;43.70
15983;DHT22;14442;50.196;8.096;2023-12-14T09:23:34;22.80;43.70
15983;DHT22;14442;50.196;8.096;2023-12-14T09:26:01;22.90;43.70
15983;DHT22;14442;50.196;8.096;2023-12-14T09:28:27;22.90;43.90
15983;DHT22;14442;50.196;8.096;2023-12-14T09:30:54;23.00;44.60
15983;DHT22;14442;50.196;8.096;2023-12-14T09:33:22;23.00;44.50
15983;DHT22;14442;50.196;8.096;2023-12-14T09:35:49;23.00;45.00
15983;DHT22;14442;50.196;8.096;2023-12-14T09:38:16;23.10;44.80
15983;DHT22;14442;50.196;8.096;2023-12-14T09:40:44;23.20;45.00
15983;DHT22;14442;50.196;8.096;2023-12-14T09:43:11;23.20;44.80
15983;DHT22;14442;50.196;8.096;2023-12-14T09:45:40;23.20;46.40
15983;DHT22;14442;50.196;8.096;2023-12-14T09:48:10;23.10;46.10
15983;DHT22;14442;50.196;8.096;2023-12-14T09:50:40;23.10;46.20
15983;DHT22;14442;50.196;8.096;2023-12-14T09:53:07;23.10;45.50
15983;DHT22;14442;50.196;8.096;2023-12-14T09:55:34;23.20;45.90
15983;DHT22;14442;50.196;8.096;2023-12-14T09:58:01;23.20;46.20
15983;DHT22;14442;50.196;8.096;2023-12-14T10:00:35;23.20;45.50
15983;DHT22;14442;50.196;8.096;2023-12-14T10:03:21;23.10;46.10
15983;DHT22;14442;50.196;8.096;2023-12-14T10:05:49;23.10;45.70
15983;DHT22;14442;50.196;8.096;2023-12-14T10:08:17;23.10;45.30
15983;DHT22;14442;50.196;8.096;2023-12-14T10:10:44;23.10;45.20
15983;DHT22;14442;50.196;8.096;2023-12-14T10:13:11;23.20;44.90
15983;DHT22;14442;50.196;8.096;2023-12-14T10:15:41;23.30;44.80
15983;DHT22;14442;50.196;8.096;2023-12-14T10:18:08;23.30;44.60
15983;DHT22;14442;50.196;8.096;2023-12-14T10:20:35;23.40;44.50
15983;DHT22;14442;50.196;8.096;2023-12-14T10:23:05;23.50;44.50
15983;DHT22;14442;50.196;8.096;2023-12-14T10:25:32;23.50;44.60
15983;DHT22;14442;50.196;8.096;2023-12-14T10:27:59;23.60;45.10
15983;DHT22;14442;50.196;8.096;2023-12-14T10:30:28;23.60;44.90
15983;DHT22;14442;50.196;8.096;2023-12-14T10:32:56;23.70;44.90
15983;DHT22;14442;50.196;8.096;2023-12-14T10:35:22;23.70;44.80
15983;DHT22;14442;50.196;8.096;2023-12-14T10:37:50;23.80;44.70
15983;DHT22;14442;50.196;8.096;2023-12-14T10:40:19;23.80;44.90
15983;DHT22;14442;50.196;8.096;2023-12-14T10:42:47;23.80;45.10
15983;DHT22;14442;50.196;8.096;2023-12-14T10:45:16;23.80;44.80
15983;DHT22;14442;50.196;8.096;2023-12-14T10:47:46;23.80;44.80
15983;DHT22;14442;50.196;8.096;2023-12-14T10:50:13;23.80;44.70
15983;DHT22;14442;50.196;8.096;2023-12-14T10:52:41;23.80;44.70
15983;DHT22;14442;50.196;8.096;2023-12-14T10:55:21;23.80;44.80
15983;DHT22;14442;50.196;8.096;2023-12-14T10:57:51;23.90;44.90
15983;DHT22;14442;50.196;8.096;2023-12-14T11:00:18;23.90;44.80
15983;DHT22;14442;50.196;8.096;2023-12-14T11:02:46;23.90;44.90
15983;DHT22;14442;50.196;8.096;2023-12-14T11:05:15;23.90;44.80
15983;DHT22;14442;50.196;8.096;2023-12-14T11:07:46;23.90;44.50
15983;DHT22;14442;50.196;8.096;2023-12-14T11:10:12;23.90;44.60
15983;DHT22;14442;50.196;8.096;2023-12-14T11:12:52;23.90;44.70
15983;DHT22;14442;50.196;8.096;2023-12-14T11:15:21;23.90;44.70
15983;DHT22;14442;50.196;8.096;2023-12-14T11:18:19;23.90;44.80
15983;DHT22;14442;50.196;8.096;2023-12-14T11:20:50;23.90;44.80
15983;DHT22;14442;50.196;8.096;2023-12-14T11:23:26;23.80;44.60
15983;DHT22;14442;50.196;8.096;2023-12-14T11:25:56;23.70;44.50
15983;DHT22;14442;50.196;8.096;2023-12-14T11:28:24;23.70;44.30
15983;DHT22;14442;50.196;8.096;2023-12-14T11:30:51;23.70;44.90
15983;DHT22;14442;50.196;8.096;2023-12-14T11:33:18;23.80;44.60
15983;DHT22;14442;50.196;8.096;2023-12-14T11:35:45;23.80;44.80
15983;DHT22;14442;50.196;8.096;2023-12-14T11:38:12;23.80;44.70
15983;DHT22;14442;50.196;8.096;2023-12-14T11:40:39;23.80;44.80
15983;DHT22;14442;50.196;8.096;2023-12-14T11:43:06;23.90;45.00
15983;DHT22;14442;50.196;8.096;2023-12-14T11:45:35;23.90;45.20
15983;DHT22;14442;50.196;8.096;2023-12-14T11:48:02;23.90;45.00
15983;DHT22;14442;50.196;8.096;2023-12-14T11:50:31;23.90;45.20
15983;DHT22;14442;50.196;8.096;2023-12-14T11:52:59;23.90;45.10
15983;DHT22;14442;50.196;8.096;2023-12-14T11:55:26;23.90;45.00
15983;DHT22;14442;50.196;8.096;2023-12-14T11:57:53;23.90;45.10
15983;DHT22;14442;50.196;8.096;2023-12-14T12:00:23;24.00;45.20
15983;DHT22;14442;50.196;8.096;2023-12-14T12:02:52;24.00;45.30
15983;DHT22;14442;50.196;8.096;2023-12-14T12:05:19;24.00;45.30
15983;DHT22;14442;50.196;8.096;2023-12-14T12:07:45;24.10;45.60
15983;DHT22;14442;50.196;8.096;2023-12-14T12:10:12;24.00;45.20
15983;DHT22;14442;50.196;8.096;2023-12-14T12:12:39;24.00;45.10
15983;DHT22;14442;50.196;8.096;2023-12-14T12:15:07;24.00;45.50
15983;DHT22;14442;50.196;8.096;2023-12-14T12:17:34;24.00;45.40
15983;DHT22;14442;50.196;8.096;2023-12-14T12:20:05;24.00;45.30
15983;DHT22;14442;50.196;8.096;2023-12-14T12:22:32;23.90;45.30
15983;DHT22;14442;50.196;8.096;2023-12-14T12:24:59;24.00;45.40
15983;DHT22;14442;50.196;8.096;2023-12-14T12:27:26;23.90;45.20
15983;DHT22;14442;50.196;8.096;2023-12-14T12:29:53;23.80;45.10
15983;DHT22;14442;50.196;8.096;2023-12-14T12:32:20;23.80;45.10
15983;DHT22;14442;50.196;8.096;2023-12-14T12:34:47;23.70;44.90
15983;DHT22;14442;50.196;8.096;2023-12-14T12:37:15;23.60;44.80
15983;DHT22;14442;50.196;8.096;2023-12-14T12:39:42;23.60;45.00
15983;DHT22;14442;50.196;8.096;2023-12-14T12:42:08;23.60;44.80
15983;DHT22;14442;50.196;8.096;2023-12-14T12:44:35;23.60;45.20
15983;DHT22;14442;50.196;8.096;2023-12-14T12:47:02;23.50;44.80
15983;DHT22;14442;50.196;8.096;2023-12-14T12:49:29;23.50;44.80
15983;DHT22;14442;50.196;8.096;2023-12-14T12:51:56;23.50;44.90
15983;DHT22;14442;50.196;8.096;2023-12-14T12:54:24;23.40;45.00
15983;DHT22;14442;50.196;8.096;2023-12-14T12:56:50;23.40;44.90
15983;DHT22;14442;50.196;8.096;2023-12-14T12:59:16;23.40;44.90
15983;DHT22;14442;50.196;8.096;2023-12-14T13:01:43;23.40;45.00
15983;DHT22;14442;50.196;8.096;2023-12-14T13:04:18;23.40;44.80
15983;DHT22;14442;50.196;8.096;2023-12-14T13:06:44;23.40;44.80
15983;DHT22;14442;50.196;8.096;2023-12-14T13:09:11;23.40;44.80
15983;DHT22;14442;50.196;8.096;2023-12-14T13:11:40;23.40;44.60
15983;DHT22;14442;50.196;8.096;2023-12-14T13:14:06;23.30;44.70
15983;DHT22;14442;50.196;8.096;2023-12-14T13:16:33;23.30;44.50
15983;DHT22;14442;50.196;8.096;2023-12-14T13:19:00;23.30;44.70
15983;DHT22;14442;50.196;8.096;2023-12-14T13:21:28;23.30;44.70
15983;DHT22;14442;50.196;8.096;2023-12-14T13:23:55;23.30;44.70
15983;DHT22;14442;50.196;8.096;2023-12-14T13:26:23;23.30;44.70
15983;DHT22;14442;50.196;8.096;2023-12-14T13:28:51;23.30;44.80
15983;DHT22;14442;50.196;8.096;2023-12-14T13:31:18;23.20;44.90
15983;DHT22;14442;50.196;8.096;2023-12-14T13:33:46;23.20;45.40
15983;DHT22;14442;50.196;8.096;2023-12-14T13:36:13;23.10;44.70
15983;DHT22;14442;50.196;8.096;2023-12-14T13:38:40;23.10;44.40
15983;DHT22;14442;50.196;8.096;2023-12-14T13:41:07;23.10;44.40
15983;DHT22;14442;50.196;8.096;2023-12-14T13:43:34;23.10;44.50
15983;DHT22;14442;50.196;8.096;2023-12-14T13:46:02;23.10;44.00
15983;DHT22;14442;50.196;8.096;2023-12-14T13:48:29;23.10;44.20
15983;DHT22;14442;50.196;8.096;2023-12-14T13:50:56;23.10;44.00
15983;DHT22;14442;50.196;8.096;2023-12-14T13:53:23;23.10;44.00
15983;DHT22;14442;50.196;8.096;2023-12-14T13:55:50;23.10;43.90
15983;DHT22;14442;50.196;8.096;2023-12-14T13:58:17;23.10;44.00
15983;DHT22;14442;50.196;8.096;2023-12-14T14:00:44;23.10;43.80
15983;DHT22;14442;50.196;8.096;2023-12-14T14:03:12;23.10;44.00
15983;DHT22;14442;50.196;8.096;2023-12-14T14:05:39;23.10;43.80
15983;DHT22;14442;50.196;8.096;2023-12-14T14:08:06;23.10;43.70
15983;DHT22;14442;50.196;8.096;2023-12-14T14:10:32;23.10;43.70
15983;DHT22;14442;50.196;8.096;2023-12-14T14:12:59;23.00;43.70
15983;DHT22;14442;50.196;8.096;2023-12-14T14:15:26;23.10;43.60
15983;DHT22;14442;50.196;8.096;2023-12-14T14:17:53;23.10;43.50
15983;DHT22;14442;50.196;8.096;2023-12-14T14:20:22;23.10;43.40
15983;DHT22;14442;50.196;8.096;2023-12-14T14:22:49;23.10;43.30
15983;DHT22;14442;50.196;8.096;2023-12-14T14:25:16;23.10;43.30
15983;DHT22;14442;50.196;8.096;2023-12-14T14:27:43;23.20;43.20
15983;DHT22;14442;50.196;8.096;2023-12-14T14:30:12;23.20;43.10
15983;DHT22;14442;50.196;8.096;2023-12-14T14:32:39;23.20;43.00
15983;DHT22;14442;50.196;8.096;2023-12-14T14:35:07;23.30;42.90
15983;DHT22;14442;50.196;8.096;2023-12-14T14:37:35;23.30;42.90
15983;DHT22;14442;50.196;8.096;2023-12-14T14:40:02;23.30;42.80
15983;DHT22;14442;50.196;8.096;2023-12-14T14:42:29;23.30;42.90
15983;DHT22;14442;50.196;8.096;2023-12-14T14:44:57;23.40;43.00
15983;DHT22;14442;50.196;8.096;2023-12-14T14:47:24;23.40;42.90
15983;DHT22;14442;50.196;8.096;2023-12-14T14:49:51;23.40;42.80
15983;DHT22;14442;50.196;8.096;2023-12-14T14:52:22;23.40;42.70
15983;DHT22;14442;50.196;8.096;2023-12-14T14:54:50;23.40;42.70
15983;DHT22;14442;50.196;8.096;2023-12-14T14:57:16;23.40;42.60
15983;DHT22;14442;50.196;8.096;2023-12-14T14:59:44;23.40;42.60
15983;DHT22;14442;50.196;8.096;2023-12-14T15:02:10;23.40;42.50
15983;DHT22;14442;50.196;8.096;2023-12-14T15:04:37;23.40;42.50
15983;DHT22;14442;50.196;8.096;2023-12-14T15:07:04;23.40;42.50
15983;DHT22;14442;50.196;8.096;2023-12-14T15:09:30;23.40;42.40
15983;DHT22;14442;50.196;8.096;2023-12-14T15:11:59;23.50;42.50
15983;DHT22;14442;50.196;8.096;2023-12-14T15:14:25;23.50;42.60
15983;DHT22;14442;50.196;8.096;2023-12-14T15:16:53;23.50;42.50
15983;DHT22;14442;50.196;8.096;2023-12-14T15:19:20;23.50;42.50
15983;DHT22;14442;50.196;8.096;2023-12-14T15:21:47;23.50;42.40
15983;DHT22;14442;50.196;8.096;2023-12-14T15:24:13;23.50;42.40
15983;DHT22;14442;50.196;8.096;2023-12-14T15:26:41;23.50;42.40
15983;DHT22;14442;50.196;8.096;2023-12-14T15:29:09;23.60;42.40
15983;DHT22;14442;50.196;8.096;2023-12-14T15:31:36;23.60;42.40